Time;durP1;ratioP1;P1;durP2;ratioP2;P2;SDS_P1;SDS_P2;PMS_P1;PMS_P2;Temp;Humidity;BMP_temperature;BMP_pressure;BME280_temperature;BME280_humidity;BME280_pressure;Samples;Min_cycle;Max_cycle;Signal;HPM_P1;HPM_P2
2022/03/30 00:01:06;;;;;;;17.30;9.93;;;;;;;14.43;43.48;97561.50;6940176;28;20215;-81
2022/03/30 00:04:28;;;;;;;16.03;9.77;;;;;;;14.36;43.79;97563.59;6940252;28;20234;-82
2022/03/30 00:07:51;;;;;;;20.73;10.93;;;;;;;14.23;43.83;97539.63;6939956;28;20234;-81
2022/03/30 00:11:14;;;;;;;15.30;10.83;;;;;;;14.20;43.92;97558.28;6940728;28;20226;-81
2022/03/30 00:14:37;;;;;;;19.33;10.57;;;;;;;13.69;45.29;97559.66;6939833;28;20212;-81
2022/03/30 00:17:59;;;;;;;16.87;10.70;;;;;;;14.00;44.72;97560.81;6939238;28;20227;-81
2022/03/30 00:21:21;;;;;;;19.57;10.73;;;;;;;14.25;44.18;97550.22;6940241;28;20220;-81
2022/03/30 00:24:43;;;;;;;15.73;10.17;;;;;;;14.18;44.69;97546.88;6938948;28;20205;-81
2022/03/30 00:28:08;;;;;;;19.33;10.97;;;;;;;14.13;45.01;97542.22;6939576;28;20697;-82
2022/03/30 00:31:29;;;;;;;19.87;10.33;;;;;;;14.40;44.42;97555.78;6931559;28;20222;-81
2022/03/30 00:34:51;;;;;;;17.43;10.13;;;;;;;14.62;43.32;97548.34;6939056;28;20207;-82
2022/03/30 00:38:12;;;;;;;20.90;11.27;;;;;;;14.63;43.68;97550.78;6939270;28;20231;-81
2022/03/30 00:41:34;;;;;;;20.20;10.70;;;;;;;14.50;44.04;97553.13;6939341;28;20238;-81
2022/03/30 00:44:57;;;;;;;18.37;10.83;;;;;;;14.38;44.35;97555.19;6939154;28;20216;-81
2022/03/30 00:48:19;;;;;;;15.30;11.27;;;;;;;14.47;44.35;97549.06;6928121;28;20242;-80
2022/03/30 00:51:40;;;;;;;14.27;9.90;;;;;;;14.63;43.91;97549.97;6918641;28;20342;-81
2022/03/30 00:55:03;;;;;;;14.70;10.60;;;;;;;14.67;43.73;97551.06;6919979;28;20279;-81
2022/03/30 00:58:25;;;;;;;18.63;10.27;;;;;;;14.72;43.63;97543.81;6919482;28;20283;-81
2022/03/30 01:01:48;;;;;;;15.97;10.23;;;;;;;14.62;43.71;97548.34;6919922;28;20258;-81
2022/03/30 01:05:11;;;;;;;19.67;11.27;;;;;;;13.74;46.38;97540.78;6919560;28;20209;-80
2022/03/30 01:08:32;;;;;;;16.20;10.73;;;;;;;14.06;45.74;97527.25;6918299;28;20279;-81
2022/03/30 01:11:54;;;;;;;21.40;11.37;;;;;;;14.13;45.90;97539.53;6919273;28;20298;-80
2022/03/30 01:15:17;;;;;;;20.63;12.97;;;;;;;14.44;45.44;97559.56;6918583;28;20196;-81
2022/03/30 01:18:40;;;;;;;19.90;11.83;;;;;;;14.07;45.69;97507.22;6918397;28;20363;-81
2022/03/30 01:22:06;;;;;;;15.83;10.90;;;;;;;14.52;44.95;97550.97;6919253;28;20288;-80
2022/03/30 01:25:27;;;;;;;16.77;11.27;;;;;;;14.57;44.91;97551.81;6918620;28;20235;-80
2022/03/30 01:28:49;;;;;;;24.07;12.70;;;;;;;14.59;44.92;97546.16;6918079;28;20235;-81
2022/03/30 01:32:26;;;;;;;18.73;11.97;;;;;;;14.80;44.50;97532.44;6918380;28;20222;-81
2022/03/30 01:35:47;;;;;;;14.37;11.07;;;;;;;14.51;45.28;97509.47;6918120;28;20204;-80
2022/03/30 01:39:12;;;;;;;20.10;11.53;;;;;;;14.31;45.52;97522.91;6918225;28;20234;-81
2022/03/30 01:42:34;;;;;;;20.77;11.93;;;;;;;14.38;45.40;97534.34;6918754;28;20209;-81
2022/03/30 01:45:55;;;;;;;21.47;12.33;;;;;;;14.47;44.90;97515.69;6917291;28;20357;-81
2022/03/30 01:49:21;;;;;;;16.70;12.00;;;;;;;14.62;44.76;97489.47;6918135;28;20704;-81
2022/03/30 01:52:42;;;;;;;21.80;12.10;;;;;;;14.62;45.37;97504.94;6918385;28;20192;-80
2022/03/30 01:56:06;;;;;;;17.90;11.90;;;;;;;14.83;45.14;97501.25;6917523;28;20189;-81
2022/03/30 01:59:27;;;;;;;18.63;12.00;;;;;;;15.11;44.29;97501.66;6918131;28;20856;-81
2022/03/30 02:02:49;;;;;;;18.93;11.60;;;;;;;14.46;45.78;97505.91;6918272;28;20292;-81
2022/03/30 02:06:12;;;;;;;20.43;12.43;;;;;;;14.59;46.22;97500.88;6918240;28;20206;-81
2022/03/30 02:09:34;;;;;;;23.13;13.20;;;;;;;14.16;46.45;97503.75;6918325;28;20230;-82
2022/03/30 02:12:58;;;;;;;24.50;11.67;;;;;;;14.34;46.40;97480.91;6918814;28;20695;-81
2022/03/30 02:16:20;;;;;;;16.60;11.10;;;;;;;14.68;45.60;97458.59;6918437;28;20220;-81
2022/03/30 02:19:41;;;;;;;14.80;11.33;;;;;;;14.47;46.35;97472.28;6918639;28;20236;-81
2022/03/30 02:23:03;;;;;;;22.57;12.57;;;;;;;14.27;46.96;97464.84;6917996;28;20213;-81
2022/03/30 02:26:27;;;;;;;18.63;13.40;;;;;;;13.87;47.79;97477.25;6920146;28;20671;-81
2022/03/30 02:29:51;;;;;;;19.33;12.83;;;;;;;14.59;45.84;97462.06;6918769;28;20245;-81
2022/03/30 02:33:13;;;;;;;17.40;11.90;;;;;;;14.82;45.73;97469.78;6918571;28;20721;-81
2022/03/30 02:36:35;;;;;;;24.00;12.10;;;;;;;14.45;46.35;97456.28;6918407;28;20209;-81
2022/03/30 02:39:56;;;;;;;17.67;12.30;;;;;;;14.67;45.63;97426.28;6923147;28;20231;-81
2022/03/30 02:43:19;;;;;;;20.27;11.80;;;;;;;14.68;45.88;97434.16;6918910;28;20304;-82
2022/03/30 02:46:43;;;;;;;18.43;12.67;;;;;;;14.52;46.34;97437.88;6917331;28;20578;-82
2022/03/30 02:50:05;;;;;;;16.63;11.80;;;;;;;14.42;46.67;97431.59;6916993;28;20372;-81
2022/03/30 02:53:27;;;;;;;19.57;12.60;;;;;;;14.32;46.69;97413.38;6916922;28;20264;-82
2022/03/30 02:56:48;;;;;;;20.63;13.33;;;;;;;14.46;46.52;97413.72;6916894;28;20258;-82
2022/03/30 03:00:11;;;;;;;19.30;13.17;;;;;;;14.22;46.67;97377.25;6920576;28;20696;-81
2022/03/30 03:03:34;;;;;;;19.87;13.87;;;;;;;14.33;47.04;97408.78;6922120;28;20219;-81
2022/03/30 03:06:56;;;;;;;14.77;11.90;;;;;;;14.68;46.11;97412.47;6922075;28;20206;-81
2022/03/30 03:10:17;;;;;;;19.80;12.67;;;;;;;14.37;46.92;97410.69;6922013;28;20254;-82
2022/03/30 03:13:39;;;;;;;19.23;12.67;;;;;;;14.17;47.86;97417.84;6921883;28;20272;-81
2022/03/30 03:17:00;;;;;;;20.47;13.13;;;;;;;13.62;48.69;97387.66;6922021;28;20256;-81
2022/03/30 03:20:23;;;;;;;21.57;13.17;;;;;;;13.56;49.31;97397.59;6921813;28;20250;-82
2022/03/30 03:23:45;;;;;;;24.97;13.30;;;;;;;13.77;49.10;97404.00;6921760;28;20202;-81
2022/03/30 03:27:07;;;;;;;18.63;13.00;;;;;;;13.96;48.78;97406.06;6920929;28;20354;-81
2022/03/30 03:30:28;;;;;;;19.83;12.50;;;;;;;14.45;47.30;97409.38;6920129;28;20233;-80
2022/03/30 03:33:50;;;;;;;17.73;12.30;;;;;;;14.40;47.34;97387.66;6920959;28;20213;-82
2022/03/30 03:37:13;;;;;;;20.13;12.77;;;;;;;14.25;47.57;97388.38;6920208;28;20310;-81
2022/03/30 03:40:35;;;;;;;18.67;12.63;;;;;;;14.48;47.20;97390.69;6921585;28;20268;-82
2022/03/30 03:43:57;;;;;;;19.63;13.30;;;;;;;14.45;47.23;97387.69;6921640;28;20218;-82
2022/03/30 03:47:18;;;;;;;19.17;13.80;;;;;;;14.55;47.08;97387.72;6921886;28;20210;-82
2022/03/30 03:50:40;;;;;;;19.70;12.93;;;;;;;14.71;46.78;97389.41;6920594;28;20266;-81
2022/03/30 03:54:03;;;;;;;21.87;12.97;;;;;;;14.44;47.63;97389.56;6922789;28;20189;-82
2022/03/30 03:57:25;;;;;;;21.27;14.47;;;;;;;14.20;48.30;97358.53;6922148;28;20349;-81
2022/03/30 04:00:46;;;;;;;24.73;15.97;;;;;;;14.51;46.82;97387.44;6922537;28;20208;-82
2022/03/30 04:04:08;;;;;;;23.53;15.00;;;;;;;14.56;47.19;97389.34;6924241;28;20235;-82
2022/03/30 04:07:29;;;;;;;20.87;13.87;;;;;;;14.40;47.90;97377.59;6921331;28;20374;-81
2022/03/30 04:10:52;;;;;;;20.17;15.20;;;;;;;14.43;47.80;97387.94;6920428;28;20857;-80
2022/03/30 04:14:15;;;;;;;23.23;15.10;;;;;;;14.68;47.89;97388.06;6921226;28;20251;-81
2022/03/30 04:17:42;;;;;;;21.63;15.33;;;;;;;14.80;48.20;97398.69;6926079;28;20752;-80
2022/03/30 04:21:04;;;;;;;24.67;16.53;;;;;;;13.90;49.90;97398.97;6931604;28;20787;-81
2022/03/30 04:24:25;;;;;;;24.90;16.47;;;;;;;14.41;49.35;97384.69;6930638;28;20215;-81
2022/03/30 04:27:49;;;;;;;26.13;17.07;;;;;;;14.29;50.43;97365.06;6932301;28;20302;-82
2022/03/30 04:31:12;;;;;;;24.63;17.00;;;;;;;14.51;50.35;97384.72;6932363;28;20220;-82
2022/03/30 04:34:33;;;;;;;25.03;16.77;;;;;;;14.10;50.50;97382.84;6931829;28;20267;-81
2022/03/30 04:37:56;;;;;;;26.33;17.80;;;;;;;14.74;49.40;97386.19;6926359;28;20251;-82
2022/03/30 04:41:17;;;;;;;24.53;15.27;;;;;;;15.10;48.09;97371.66;6919598;28;20285;-79
2022/03/30 04:44:41;;;;;;;23.03;16.50;;;;;;;15.09;48.59;97376.25;6920591;28;20210;-80
2022/03/30 04:48:03;;;;;;;23.87;16.73;;;;;;;14.64;50.90;97384.22;6920984;28;20223;-81
2022/03/30 04:51:25;;;;;;;21.67;15.67;;;;;;;13.96;51.97;97378.97;6927020;28;20227;-81
2022/03/30 04:54:46;;;;;;;25.10;16.73;;;;;;;14.02;51.40;97321.00;6930067;28;20200;-81
2022/03/30 04:58:08;;;;;;;24.33;16.47;;;;;;;14.70;49.95;97385.09;6926484;28;20633;-81
2022/03/30 05:01:31;;;;;;;26.70;17.97;;;;;;;14.52;50.96;97378.22;6936700;28;20206;-80
2022/03/30 05:04:53;;;;;;;23.20;18.20;;;;;;;14.42;51.72;97390.91;6928247;28;20400;-81
2022/03/30 05:08:15;;;;;;;26.73;18.13;;;;;;;14.13;51.77;97382.31;6927670;28;20247;-81
2022/03/30 05:11:36;;;;;;;22.23;16.80;;;;;;;14.75;50.91;97382.41;6932854;28;20252;-81
2022/03/30 05:14:58;;;;;;;30.10;19.27;;;;;;;14.53;52.22;97390.72;6935393;28;20234;-80
2022/03/30 05:18:22;;;;;;;26.80;18.23;;;;;;;14.65;52.10;97390.47;6926808;28;20220;-80
2022/03/30 05:21:45;;;;;;;25.00;16.57;;;;;;;14.58;52.63;97384.50;6919885;28;20207;-81
2022/03/30 05:25:07;;;;;;;25.47;17.30;;;;;;;14.09;54.14;97389.34;6921136;28;20204;-80
2022/03/30 05:28:29;;;;;;;23.17;18.40;;;;;;;14.44;54.50;97391.47;6919685;28;20748;-81
2022/03/30 05:31:51;;;;;;;28.40;15.80;;;;;;;14.39;54.30;97394.16;6919735;28;20224;-80
2022/03/30 05:35:14;;;;;;;26.60;17.73;;;;;;;14.79;54.49;97397.88;6920751;28;20204;-81
2022/03/30 05:38:36;;;;;;;30.33;17.50;;;;;;;14.43;55.01;97396.06;6920669;28;20267;-81
2022/03/30 05:41:58;;;;;;;29.90;17.13;;;;;;;14.59;55.93;97389.66;6920294;28;20200;-81
2022/03/30 05:45:19;;;;;;;30.33;17.37;;;;;;;14.24;56.11;97400.31;6919762;28;20675;-81
2022/03/30 05:48:41;;;;;;;30.13;17.77;;;;;;;14.18;55.71;97384.25;6918275;28;20325;-80
2022/03/30 05:52:05;;;;;;;31.30;18.33;;;;;;;14.10;57.29;97404.50;6917799;28;20674;-80
2022/03/30 05:55:27;;;;;;;38.23;18.90;;;;;;;13.91;58.34;97386.22;6918444;28;20402;-80
2022/03/30 05:58:49;;;;;;;30.97;18.30;;;;;;;14.00;58.29;97390.91;6917772;28;20235;-80
2022/03/30 06:02:13;;;;;;;51.83;29.70;;;;;;;13.91;58.67;97384.34;6897617;28;20654;-80
2022/03/30 06:05:34;;;;;;;30.93;17.77;;;;;;;13.79;59.00;97399.13;6890957;28;20288;-81
2022/03/30 06:08:57;;;;;;;31.63;18.73;;;;;;;13.71;59.76;97395.03;6890705;28;20704;-80
2022/03/30 06:12:19;;;;;;;31.17;19.27;;;;;;;14.19;58.98;97399.44;6890336;28;20233;-81
2022/03/30 06:15:40;;;;;;;29.83;18.80;;;;;;;14.40;58.73;97396.59;6889529;28;20228;-81
2022/03/30 06:19:02;;;;;;;27.87;18.40;;;;;;;14.77;57.26;97400.03;6893673;28;20307;-80
2022/03/30 06:22:27;;;;;;;27.87;19.50;;;;;;;14.69;57.61;97397.03;6890731;28;20532;-80
2022/03/30 06:25:50;;;;;;;29.93;19.20;;;;;;;14.89;56.92;97391.66;6890178;28;20207;-80
2022/03/30 06:29:12;;;;;;;33.20;21.63;;;;;;;14.70;57.66;97396.72;6890931;28;20227;-81
2022/03/30 06:32:35;;;;;;;37.33;21.80;;;;;;;14.83;57.34;97398.16;6891234;28;20493;-80
2022/03/30 06:35:56;;;;;;;38.20;24.77;;;;;;;14.32;58.05;97351.00;6895921;28;20209;-80
2022/03/30 06:39:18;;;;;;;38.60;25.87;;;;;;;14.32;60.02;97380.00;6897530;28;20278;-81
2022/03/30 06:42:41;;;;;;;36.90;25.67;;;;;;;14.60;59.55;97377.72;6897744;28;20231;-81
2022/03/30 06:46:03;;;;;;;36.97;24.40;;;;;;;14.74;58.83;97378.84;6897303;28;20218;-81
2022/03/30 06:49:25;;;;;;;35.20;22.93;;;;;;;14.72;58.21;97358.50;6897045;28;20230;-81
2022/03/30 06:52:46;;;;;;;37.93;22.77;;;;;;;14.84;57.89;97378.91;6897145;28;20715;-81
2022/03/30 06:56:08;;;;;;;35.27;22.83;;;;;;;14.77;58.01;97372.06;6897440;28;20244;-81
2022/03/30 06:59:31;;;;;;;37.37;24.57;;;;;;;14.75;58.41;97363.41;6897951;28;20709;-81
2022/03/30 07:02:53;;;;;;;34.40;21.90;;;;;;;14.75;58.06;97358.78;6897191;28;20240;-81
2022/03/30 07:06:15;;;;;;;34.90;20.53;;;;;;;14.68;58.16;97363.63;6904663;28;20203;-82
2022/03/30 07:13:17;;;;;;;30.70;19.80;;;;;;;14.82;57.68;97345.75;6893964;28;20299;-81
2022/03/30 07:16:40;;;;;;;30.43;20.77;;;;;;;14.88;57.41;97358.28;6906310;28;20213;-82
2022/03/30 07:20:01;;;;;;;37.50;22.77;;;;;;;14.64;58.65;97353.59;6896176;28;20222;-81
2022/03/30 07:23:23;;;;;;;39.17;22.93;;;;;;;14.62;58.86;97343.00;6894160;28;20675;-81
2022/03/30 07:26:45;;;;;;;37.07;23.87;;;;;;;14.45;59.48;97345.09;6893748;28;20204;-81
2022/03/30 07:30:08;;;;;;;34.70;23.70;;;;;;;14.47;60.03;97345.66;6893434;28;20266;-81
2022/03/30 07:33:33;;;;;;;33.23;21.90;;;;;;;14.78;58.34;97344.69;6894375;28;20228;-81
2022/03/30 07:36:54;;;;;;;29.60;21.53;;;;;;;14.81;58.32;97337.91;6904187;28;20713;-81
2022/03/30 07:40:18;;;;;;;34.73;22.13;;;;;;;14.77;58.19;97345.78;6920740;28;20224;-81
2022/03/30 07:43:40;;;;;;;33.63;21.93;;;;;;;14.69;59.08;97332.72;6919922;28;20253;-81
2022/03/30 07:47:03;;;;;;;30.80;20.43;;;;;;;14.87;58.22;97334.13;6919354;28;20211;-79
2022/03/30 07:50:26;;;;;;;38.93;21.37;;;;;;;14.77;58.28;97343.06;6918775;28;20227;-80
2022/03/30 07:53:47;;;;;;;33.93;20.37;;;;;;;15.00;58.05;97333.63;6919663;28;20282;-80
2022/03/30 07:57:09;;;;;;;31.27;20.00;;;;;;;14.60;58.19;97301.78;6919032;28;20544;-81
2022/03/30 08:00:31;;;;;;;35.83;20.73;;;;;;;14.79;58.64;97321.91;6939087;28;20218;-80
2022/03/30 08:03:53;;;;;;;39.07;21.67;;;;;;;14.79;58.73;97330.03;6946956;28;20742;-80
2022/03/30 08:07:16;;;;;;;35.47;21.37;;;;;;;14.92;58.80;97336.88;6945791;28;20245;-81
2022/03/30 08:10:38;;;;;;;37.23;20.67;;;;;;;15.15;58.08;97328.22;6938997;28;20235;-81
2022/03/30 08:13:59;;;;;;;31.53;19.20;;;;;;;15.18;57.06;97327.66;6919189;28;20208;-80
2022/03/30 08:17:21;;;;;;;32.53;18.93;;;;;;;15.00;58.03;97328.19;6918068;28;20214;-80
2022/03/30 08:24:23;;;;;;;28.43;20.77;;;;;;;15.17;58.77;97326.84;6919642;28;20651;-81
2022/03/30 08:27:46;;;;;;;31.17;21.27;;;;;;;15.23;58.77;97338.53;6919096;28;20224;-82
2022/03/30 08:31:09;;;;;;;35.53;19.23;;;;;;;15.61;57.27;97329.88;6921624;28;20231;-81
2022/03/30 08:34:30;;;;;;;32.03;18.73;;;;;;;15.61;56.26;97332.59;6921015;28;20657;-81
2022/03/30 08:37:52;;;;;;;32.47;19.27;;;;;;;15.62;57.06;97323.38;6921016;28;20222;-81
2022/03/30 08:41:15;;;;;;;32.93;20.90;;;;;;;15.53;57.38;97333.16;6921351;28;20575;-81
2022/03/30 08:44:37;;;;;;;35.37;20.27;;;;;;;15.61;57.26;97324.44;6921215;28;20260;-81
2022/03/30 08:47:59;;;;;;;29.57;21.17;;;;;;;15.50;57.96;97342.66;6919307;28;20283;-77
2022/03/30 08:51:21;;;;;;;30.73;18.80;;;;;;;15.77;56.70;97318.75;6916752;28;20311;-80
2022/03/30 08:54:44;;;;;;;34.67;21.20;;;;;;;15.70;56.40;97318.19;6917259;28;20234;-80
2022/03/30 08:58:07;;;;;;;31.17;17.53;;;;;;;15.90;55.98;97331.78;6916690;28;20234;-79
2022/03/30 09:01:32;;;;;;;27.27;17.80;;;;;;;15.98;56.35;97327.69;6917790;28;20673;-79
2022/03/30 09:05:12;;;;;;;34.77;20.17;;;;;;;15.80;57.68;97331.78;6918108;28;20191;-80
2022/03/30 09:08:33;;;;;;;32.40;20.17;;;;;;;15.96;57.71;97321.69;6916939;28;20220;-80
2022/03/30 09:11:55;;;;;;;36.30;19.73;;;;;;;16.20;56.77;97320.81;6918656;28;20293;-79
2022/03/30 09:15:19;;;;;;;26.87;15.17;;;;;;;16.32;55.22;97315.06;6917210;28;20199;-79
2022/03/30 09:18:42;;;;;;;32.17;16.67;;;;;;;15.70;56.70;97317.38;6916279;28;20723;-80
2022/03/30 09:22:04;;;;;;;32.83;16.60;;;;;;;16.24;55.87;97324.63;6917841;28;20210;-81
2022/03/30 09:25:27;;;;;;;30.43;18.67;;;;;;;16.02;57.19;97317.88;6918183;28;20212;-81
2022/03/30 09:28:49;;;;;;;34.30;16.50;;;;;;;16.08;56.72;97322.22;6917449;28;20263;-80
2022/03/30 09:32:12;;;;;;;31.50;15.03;;;;;;;15.98;56.58;97320.31;6917955;28;20227;-80
2022/03/30 09:35:38;;;;;;;29.07;16.33;;;;;;;15.86;56.78;97324.44;6918025;28;20286;-80
2022/03/30 09:39:00;;;;;;;26.47;14.63;;;;;;;15.54;57.87;97313.88;6917634;28;20232;-80
2022/03/30 09:42:22;;;;;;;33.03;15.03;;;;;;;15.53;57.93;97311.44;6917436;28;20618;-80
2022/03/30 09:45:44;;;;;;;29.97;15.53;;;;;;;15.55;57.34;97304.63;6917256;28;20219;-80
2022/03/30 09:49:07;;;;;;;30.87;15.53;;;;;;;15.83;57.23;97305.94;6918127;28;20227;-80
2022/03/30 09:52:30;;;;;;;31.67;13.43;;;;;;;15.75;57.29;97288.28;6915991;28;20231;-80
2022/03/30 09:55:57;;;;;;;29.63;14.30;;;;;;;15.90;56.73;97290.16;6938858;28;20278;-80
2022/03/30 09:59:22;;;;;;;21.20;12.07;;;;;;;15.83;55.58;97298.63;6921325;28;20228;-80
2022/03/30 10:02:45;;;;;;;24.70;12.20;;;;;;;16.04;54.70;97288.53;6931823;28;20342;-80
2022/03/30 10:06:10;;;;;;;31.07;13.60;;;;;;;15.63;56.41;97286.97;6944694;28;20207;-79
2022/03/30 10:09:32;;;;;;;26.97;12.37;;;;;;;15.58;55.25;97263.31;6944759;28;20570;-80
2022/03/30 10:12:53;;;;;;;32.83;15.13;;;;;;;15.43;56.45;97284.25;6945981;28;20230;-80
2022/03/30 10:16:17;;;;;;;31.97;14.17;;;;;;;15.86;56.73;97281.75;6947448;28;20214;-80
2022/03/30 10:19:42;;;;;;;29.40;13.33;;;;;;;16.27;56.25;97258.00;6930441;28;20248;-80
2022/03/30 10:23:20;;;;;;;21.47;14.50;;;;;;;16.20;56.47;97262.91;6945884;28;20183;-80
2022/03/30 10:26:51;;;;;;;26.40;13.33;;;;;;;16.23;56.61;97275.94;6946454;28;20330;-81
2022/03/30 10:30:13;;;;;;;29.50;14.03;;;;;;;16.40;56.53;97263.66;6948063;28;20588;-80
2022/03/30 10:33:36;;;;;;;23.80;13.73;;;;;;;16.19;56.26;97256.66;6923228;28;20223;-81
2022/03/30 10:37:07;;;;;;;30.40;14.13;;;;;;;16.26;56.17;97257.16;6947943;28;20209;-81
2022/03/30 10:40:30;;;;;;;23.73;12.93;;;;;;;16.45;54.63;97254.69;6947941;28;20230;-80
2022/03/30 10:43:53;;;;;;;25.47;13.43;;;;;;;16.34;55.15;97250.34;6936062;28;20211;-80
2022/03/30 10:47:17;;;;;;;25.00;13.27;;;;;;;15.85;55.38;97201.31;6938093;28;20240;-81
2022/03/30 10:50:41;;;;;;;25.77;13.97;;;;;;;16.32;56.11;97256.06;6942572;28;20260;-81
2022/03/30 10:54:02;;;;;;;26.87;14.13;;;;;;;16.23;56.26;97243.31;6943209;28;20246;-80
2022/03/30 10:57:47;;;;;;;24.43;14.43;;;;;;;15.90;56.52;97249.41;6942849;28;20230;-80
2022/03/30 11:01:13;;;;;;;26.33;13.00;;;;;;;16.47;55.50;97233.44;6944612;28;20203;-82
2022/03/30 11:04:34;;;;;;;21.73;11.93;;;;;;;16.88;53.43;97227.44;6944023;28;20285;-81
2022/03/30 11:07:56;;;;;;;24.87;11.80;;;;;;;16.55;53.13;97224.69;6943323;28;20220;-81
2022/03/30 11:11:22;;;;;;;27.10;11.80;;;;;;;16.58;54.48;97227.66;6928521;28;20293;-81
2022/03/30 11:15:03;;;;;;;23.63;12.23;;;;;;;16.85;55.21;97217.13;6915301;28;20216;-81
2022/03/30 11:18:25;;;;;;;21.53;12.23;;;;;;;17.45;53.92;97202.25;6915027;28;20235;-81
2022/03/30 11:22:05;;;;;;;27.20;12.10;;;;;;;17.28;52.88;97216.22;6919015;28;20207;-81
2022/03/30 11:25:27;;;;;;;20.83;11.90;;;;;;;17.79;51.23;97200.22;6920231;28;20215;-81
2022/03/30 11:28:49;;;;;;;24.07;11.40;;;;;;;17.69;50.80;97181.28;6920715;28;20232;-81
2022/03/30 11:32:37;;;;;;;20.60;11.13;;;;;;;17.91;50.35;97201.47;6921532;28;20224;-81
2022/03/30 11:36:00;;;;;;;21.70;11.30;;;;;;;17.05;52.08;97199.84;6947752;28;20200;-81
2022/03/30 11:39:30;;;;;;;20.57;11.40;;;;;;;16.72;52.67;97171.50;6948239;28;20230;-81
2022/03/30 11:42:53;;;;;;;31.63;11.47;;;;;;;16.72;53.92;97196.00;6948274;28;20245;-81
2022/03/30 11:46:14;;;;;;;22.13;10.97;;;;;;;16.19;53.95;97168.81;6946997;28;20302;-81
2022/03/30 11:49:50;;;;;;;20.47;11.77;;;;;;;16.66;53.39;97186.25;6948381;28;20381;-80
2022/03/30 11:53:13;;;;;;;25.13;11.20;;;;;;;16.82;53.62;97190.47;6948661;28;20578;-82
2022/03/30 11:56:35;;;;;;;24.90;11.40;;;;;;;16.85;52.83;97183.66;6948705;28;20188;-82
2022/03/30 11:59:58;;;;;;;22.07;12.90;;;;;;;16.71;54.05;97174.50;6947846;28;20317;-80
2022/03/30 12:03:20;;;;;;;22.30;11.43;;;;;;;16.54;54.54;97179.53;6948371;28;20222;-81
2022/03/30 12:06:47;;;;;;;21.17;12.17;;;;;;;16.21;55.73;97180.25;6948654;28;20207;-81
2022/03/30 12:10:13;;;;;;;22.03;13.90;;;;;;;16.87;54.05;97181.47;6948482;28;20881;-80
2022/03/30 12:13:35;;;;;;;28.40;13.20;;;;;;;16.51;55.69;97169.22;6944914;28;20373;-78
2022/03/30 12:16:59;;;;;;;26.27;13.63;;;;;;;15.89;56.75;97186.09;6945257;28;20210;-81
2022/03/30 12:20:26;;;;;;;23.90;12.97;;;;;;;16.12;56.83;97177.31;6945170;28;20230;-80
2022/03/30 12:23:53;;;;;;;24.93;13.43;;;;;;;16.32;56.54;97174.47;6945641;28;20211;-80
2022/03/30 12:27:16;;;;;;;30.03;16.83;;;;;;;16.71;55.74;97171.78;6929599;28;20259;-79
2022/03/30 12:30:39;;;;;;;25.23;13.43;;;;;;;16.94;55.17;97168.34;6919920;28;20258;-79
2022/03/30 12:34:09;;;;;;;27.90;12.63;;;;;;;16.83;53.62;97148.56;6918254;28;20606;-79
2022/03/30 12:37:31;;;;;;;28.27;14.17;;;;;;;16.89;55.24;97162.94;6915854;28;20269;-81
2022/03/30 12:40:54;;;;;;;25.33;14.43;;;;;;;16.94;54.40;97150.13;6917831;28;20212;-81
2022/03/30 12:44:20;;;;;;;23.17;12.77;;;;;;;16.59;55.49;97152.28;6917538;28;20212;-80
2022/03/30 12:47:47;;;;;;;27.60;13.67;;;;;;;16.91;54.05;97152.56;6917887;28;20228;-80
2022/03/30 12:51:18;;;;;;;34.20;18.37;;;;;;;16.17;56.13;97155.50;6917272;28;20189;-80
2022/03/30 12:54:41;;;;;;;37.23;21.47;;;;;;;16.89;56.23;97152.06;6910928;28;20235;-80
2022/03/30 12:58:11;;;;;;;33.23;23.33;;;;;;;16.90;56.31;97143.59;6917382;28;20238;-81
2022/03/30 13:01:35;;;;;;;20.43;13.87;;;;;;;16.51;54.96;97147.47;6917714;28;20636;-80
2022/03/30 13:04:57;;;;;;;23.57;15.17;;;;;;;16.98;54.63;97134.03;6917861;28;20302;-81
2022/03/30 13:08:19;;;;;;;26.20;15.93;;;;;;;16.15;55.20;97140.59;6917124;28;20223;-81
2022/03/30 13:11:43;;;;;;;24.17;16.00;;;;;;;16.35;55.00;97138.53;6921199;28;20314;-82
2022/03/30 13:15:08;;;;;;;24.93;17.40;;;;;;;16.32;55.55;97146.44;6922744;28;20211;-82
2022/03/30 13:18:29;;;;;;;23.50;14.13;;;;;;;15.61;58.37;97132.41;6921330;28;20236;-83
2022/03/30 13:21:52;;;;;;;22.30;11.40;;;;;;;15.97;58.08;97142.03;6921495;28;20227;-82
2022/03/30 13:25:24;;;;;;;14.40;11.10;;;;;;;15.59;59.34;97139.19;6922765;28;20575;-83
2022/03/30 13:28:46;;;;;;;22.57;13.70;;;;;;;15.50;60.16;97136.22;6921970;28;20227;-82
2022/03/30 13:32:09;;;;;;;15.00;11.93;;;;;;;14.73;62.20;97152.06;6923432;28;20324;-82
2022/03/30 13:35:31;;;;;;;12.87;11.33;;;;;;;14.45;63.17;97136.31;6922550;28;20211;-82
2022/03/30 13:38:54;;;;;;;11.10;10.00;;;;;;;14.42;62.32;97130.63;6921816;28;20223;-82
2022/03/30 13:42:16;;;;;;;10.43;9.33;;;;;;;14.60;62.16;97136.34;6924614;28;20209;-82
2022/03/30 13:45:37;;;;;;;10.83;9.40;;;;;;;14.82;62.01;97136.84;6949479;28;20208;-82
2022/03/30 13:49:00;;;;;;;10.60;9.53;;;;;;;14.92;60.51;97125.22;6949024;28;20233;-82
2022/03/30 13:52:24;;;;;;;11.93;9.40;;;;;;;14.68;61.64;97137.69;6947795;28;20274;-82
2022/03/30 13:55:46;;;;;;;9.70;8.77;;;;;;;14.45;61.21;97103.78;6948103;28;20229;-82
2022/03/30 13:59:07;;;;;;;8.47;7.67;;;;;;;14.22;62.37;97139.53;6949370;28;20219;-82
2022/03/30 14:02:29;;;;;;;9.03;8.13;;;;;;;14.48;61.77;97127.66;6948824;28;20212;-82
2022/03/30 14:05:53;;;;;;;9.33;8.43;;;;;;;14.21;62.46;97127.06;6948213;28;20278;-82
2022/03/30 14:09:15;;;;;;;9.37;8.43;;;;;;;14.53;60.96;97075.31;6944156;28;20227;-82
2022/03/30 14:12:37;;;;;;;9.53;8.53;;;;;;;14.43;60.90;97133.06;6903140;28;20251;-82
2022/03/30 14:15:59;;;;;;;9.20;8.37;;;;;;;14.41;61.24;97124.41;6893228;28;20213;-82
2022/03/30 14:19:21;;;;;;;9.67;8.73;;;;;;;14.30;61.10;97075.84;6893975;28;20228;-82
2022/03/30 14:22:45;;;;;;;11.13;9.33;;;;;;;14.41;61.28;97134.41;6894202;28;20208;-82
2022/03/30 14:26:07;;;;;;;11.10;10.03;;;;;;;14.70;60.85;97135.53;6932057;28;20210;-83
2022/03/30 14:29:28;;;;;;;10.70;9.37;;;;;;;14.43;61.14;97138.50;6921261;28;20309;-83
2022/03/30 14:32:52;;;;;;;11.33;10.23;;;;;;;14.20;62.05;97117.31;6924911;28;20228;-82
2022/03/30 14:36:14;;;;;;;12.70;11.50;;;;;;;15.02;60.27;97130.59;6941158;28;20230;-83
2022/03/30 14:39:37;;;;;;;12.03;10.80;;;;;;;15.09;59.27;97125.69;6942843;28;20238;-81
2022/03/30 14:42:59;;;;;;;13.77;11.23;;;;;;;15.04;58.56;97118.38;6898219;28;20211;-79
2022/03/30 14:46:21;;;;;;;15.43;12.70;;;;;;;15.09;58.20;97128.41;6892362;28;20206;-81
2022/03/30 14:49:42;;;;;;;15.83;12.90;;;;;;;15.22;58.88;97125.16;6892151;28;20238;-81
2022/03/30 14:53:05;;;;;;;14.53;12.40;;;;;;;15.00;58.21;97113.78;6920131;28;20691;-82
2022/03/30 14:56:28;;;;;;;13.53;12.10;;;;;;;15.13;57.80;97115.94;6929090;28;20253;-81
2022/03/30 14:59:50;;;;;;;14.87;12.07;;;;;;;15.18;57.46;97096.91;6951762;28;20616;-82
2022/03/30 15:03:11;;;;;;;12.70;11.40;;;;;;;14.94;56.78;97104.03;6951771;28;20203;-81
2022/03/30 15:06:33;;;;;;;13.17;11.60;;;;;;;14.62;57.67;97103.53;6951387;28;20215;-81
2022/03/30 15:09:55;;;;;;;16.87;13.07;;;;;;;14.88;57.59;97105.13;6951566;28;20227;-82
2022/03/30 15:13:18;;;;;;;15.83;11.77;;;;;;;15.22;56.57;97082.50;6932191;28;20238;-82
2022/03/30 15:16:39;;;;;;;13.33;11.40;;;;;;;15.29;55.51;97088.47;6922838;28;20208;-82
2022/03/30 15:20:01;;;;;;;14.00;12.43;;;;;;;15.32;55.39;97084.38;6923895;28;20586;-82
2022/03/30 15:23:24;;;;;;;12.67;11.33;;;;;;;15.47;54.95;97087.09;6905305;28;20192;-80
2022/03/30 15:26:47;;;;;;;12.63;11.20;;;;;;;15.84;54.05;97069.25;6931076;28;20214;-80
2022/03/30 15:30:11;;;;;;;12.67;10.93;;;;;;;15.75;53.86;97081.78;6924220;28;20243;-80
2022/03/30 15:33:35;;;;;;;12.53;11.23;;;;;;;16.03;53.89;97078.38;6922327;28;20227;-80
2022/03/30 15:36:56;;;;;;;12.53;10.63;;;;;;;15.72;53.61;97067.97;6922545;28;20622;-81
2022/03/30 15:40:18;;;;;;;12.33;11.03;;;;;;;15.91;53.14;97072.47;6922286;28;20220;-80